sensor_id;sensor_type;location;lat;lon;timestamp;pressure;altitude;pressure_sealevel;temperature;humidity
60337;BME280;46978;50.288;28.624;2022-12-07T00:00:20;99060.92;;;-5.24;100.00
60337;BME280;46978;50.288;28.624;2022-12-07T00:01:28;99057.61;;;-5.23;100.00
60337;BME280;46978;50.288;28.624;2022-12-07T00:02:31;99063.52;;;-5.23;100.00
60337;BME280;46978;50.288;28.624;2022-12-07T00:03:33;99060.98;;;-5.23;100.00
60337;BME280;46978;50.288;28.624;2022-12-07T00:04:34;99054.31;;;-5.20;100.00
60337;BME280;46978;50.288;28.624;2022-12-07T00:05:36;99061.11;;;-5.19;100.00
60337;BME280;46978;50.288;28.624;2022-12-07T00:06:42;99061.17;;;-5.18;100.00
60337;BME280;46978;50.288;28.624;2022-12-07T00:07:44;99057.84;;;-5.17;100.00
60337;BME280;46978;50.288;28.624;2022-12-07T00:08:46;99052.91;;;-5.14;100.00
60337;BME280;46978;50.288;28.624;2022-12-07T00:09:48;99057.08;;;-5.14;100.00
60337;BME280;46978;50.288;28.624;2022-12-07T00:10:50;99057.08;;;-5.14;100.00
60337;BME280;46978;50.288;28.624;2022-12-07T00:11:52;99053.77;;;-5.13;100.00
60337;BME280;46978;50.288;28.624;2022-12-07T00:12:53;99058.82;;;-5.13;100.00
60337;BME280;46978;50.288;28.624;2022-12-07T00:13:57;99054.67;;;-5.11;100.00
60337;BME280;46978;50.288;28.624;2022-12-07T00:14:59;99051.35;;;-5.10;100.00
60337;BME280;46978;50.288;28.624;2022-12-07T00:16:03;99048.82;;;-5.10;100.00
60337;BME280;46978;50.288;28.624;2022-12-07T00:17:05;99047.20;;;-5.08;100.00
60337;BME280;46978;50.288;28.624;2022-12-07T00:18:07;99037.97;;;-5.08;100.00
60337;BME280;46978;50.288;28.624;2022-12-07T00:19:10;99043.09;;;-5.06;100.00
60337;BME280;46978;50.288;28.624;2022-12-07T00:20:12;99041.41;;;-5.06;100.00
60337;BME280;46978;50.288;28.624;2022-12-07T00:21:16;99038.03;;;-5.06;100.00
60337;BME280;46978;50.288;28.624;2022-12-07T00:22:19;99038.03;;;-5.06;100.00
60337;BME280;46978;50.288;28.624;2022-12-07T00:23:21;99040.56;;;-5.06;100.00
60337;BME280;46978;50.288;28.624;2022-12-07T00:24:22;99038.09;;;-5.05;100.00
60337;BME280;46978;50.288;28.624;2022-12-07T00:25:24;99030.55;;;-5.03;100.00
60337;BME280;46978;50.288;28.624;2022-12-07T00:26:28;99035.62;;;-5.03;99.96
60337;BME280;46978;50.288;28.624;2022-12-07T00:27:30;99043.20;;;-5.03;99.87
60337;BME280;46978;50.288;28.624;2022-12-07T00:28:32;99028.82;;;-5.04;99.84
60337;BME280;46978;50.288;28.624;2022-12-07T00:29:34;99033.82;;;-5.06;100.00
60337;BME280;46978;50.288;28.624;2022-12-07T00:30:36;99032.14;;;-5.05;100.00
60337;BME280;46978;50.288;28.624;2022-12-07T00:31:38;99031.29;;;-5.06;100.00
60337;BME280;46978;50.288;28.624;2022-12-07T00:32:39;99029.67;;;-5.04;100.00
60337;BME280;46978;50.288;28.624;2022-12-07T00:33:41;99027.26;;;-5.00;100.00
60337;BME280;46978;50.288;28.624;2022-12-07T00:34:43;99028.14;;;-5.00;100.00
60337;BME280;46978;50.288;28.624;2022-12-07T00:35:45;99026.47;;;-4.99;100.00
60337;BME280;46978;50.288;28.624;2022-12-07T00:36:47;99023.94;;;-4.99;100.00
60337;BME280;46978;50.288;28.624;2022-12-07T00:37:49;99018.87;;;-4.99;100.00
60337;BME280;46978;50.288;28.624;2022-12-07T00:38:51;99026.47;;;-4.99;100.00
60337;BME280;46978;50.288;28.624;2022-12-07T00:39:53;99017.20;;;-4.99;100.00
60337;BME280;46978;50.288;28.624;2022-12-07T00:40:58;99017.26;;;-4.97;100.00
60337;BME280;46978;50.288;28.624;2022-12-07T00:42:00;99022.38;;;-4.96;100.00
60337;BME280;46978;50.288;28.624;2022-12-07T00:43:02;99022.38;;;-4.96;100.00
60337;BME280;46978;50.288;28.624;2022-12-07T00:44:04;99027.44;;;-4.96;100.00
60337;BME280;46978;50.288;28.624;2022-12-07T00:45:06;99029.11;;;-4.96;100.00
60337;BME280;46978;50.288;28.624;2022-12-07T00:46:09;99023.32;;;-4.94;100.00
60337;BME280;46978;50.288;28.624;2022-12-07T00:47:11;99024.97;;;-4.94;100.00
60337;BME280;46978;50.288;28.624;2022-12-07T00:48:13;99015.73;;;-4.94;100.00
60337;BME280;46978;50.288;28.624;2022-12-07T00:49:15;99025.02;;;-4.93;100.00
60337;BME280;46978;50.288;28.624;2022-12-07T00:50:16;99015.78;;;-4.92;100.00
60337;BME280;46978;50.288;28.624;2022-12-07T00:51:20;99015.84;;;-4.91;100.00
60337;BME280;46978;50.288;28.624;2022-12-07T00:52:22;99018.31;;;-4.92;100.00
60337;BME280;46978;50.288;28.624;2022-12-07T00:53:24;99011.52;;;-4.93;100.00
60337;BME280;46978;50.288;28.624;2022-12-07T00:54:26;99011.52;;;-4.93;100.00
60337;BME280;46978;50.288;28.624;2022-12-07T00:55:28;99005.72;;;-4.91;100.00
60337;BME280;46978;50.288;28.624;2022-12-07T00:56:30;99004.78;;;-4.93;100.00
60337;BME280;46978;50.288;28.624;2022-12-07T00:57:31;99009.90;;;-4.91;100.00
60337;BME280;46978;50.288;28.624;2022-12-07T00:58:33;99000.60;;;-4.92;100.00
60337;BME280;46978;50.288;28.624;2022-12-07T00:59:35;98996.39;;;-4.92;100.00
60337;BME280;46978;50.288;28.624;2022-12-07T01:00:38;98993.07;;;-4.91;100.00
60337;BME280;46978;50.288;28.624;2022-12-07T01:01:40;98999.77;;;-4.91;100.00
60337;BME280;46978;50.288;28.624;2022-12-07T01:02:42;98990.54;;;-4.91;100.00
60337;BME280;46978;50.288;28.624;2022-12-07T01:03:44;98992.23;;;-4.90;100.00
60337;BME280;46978;50.288;28.624;2022-12-07T01:04:45;98997.36;;;-4.88;100.00
60337;BME280;46978;50.288;28.624;2022-12-07T01:05:52;98984.70;;;-4.88;100.00
60337;BME280;46978;50.288;28.624;2022-12-07T01:06:55;98988.92;;;-4.89;100.00
60337;BME280;46978;50.288;28.624;2022-12-07T01:07:56;98981.33;;;-4.89;100.00
60337;BME280;46978;50.288;28.624;2022-12-07T01:08:59;98983.00;;;-4.89;100.00
60337;BME280;46978;50.288;28.624;2022-12-07T01:10:01;98980.41;;;-4.91;100.00
60337;BME280;46978;50.288;28.624;2022-12-07T01:11:07;98982.89;;;-4.92;100.00
60337;BME280;46978;50.288;28.624;2022-12-07T01:12:10;98982.00;;;-4.93;100.00
60337;BME280;46978;50.288;28.624;2022-12-07T01:13:12;98982.00;;;-4.93;100.00
60337;BME280;46978;50.288;28.624;2022-12-07T01:14:14;98984.59;;;-4.91;100.00
60337;BME280;46978;50.288;28.624;2022-12-07T01:15:16;98985.48;;;-4.91;100.00
60337;BME280;46978;50.288;28.624;2022-12-07T01:16:19;98985.53;;;-4.89;100.00
60337;BME280;46978;50.288;28.624;2022-12-07T01:17:21;98982.17;;;-4.88;100.00
60337;BME280;46978;50.288;28.624;2022-12-07T01:18:22;98980.53;;;-4.88;100.00
60337;BME280;46978;50.288;28.624;2022-12-07T01:19:24;98983.91;;;-4.87;100.00
60337;BME280;46978;50.288;28.624;2022-12-07T01:20:26;98983.97;;;-4.86;100.00
60337;BME280;46978;50.288;28.624;2022-12-07T01:21:30;98973.79;;;-4.87;100.00
60337;BME280;46978;50.288;28.624;2022-12-07T01:22:38;98973.84;;;-4.86;100.00
60337;BME280;46978;50.288;28.624;2022-12-07T01:23:40;98973.84;;;-4.86;100.00
60337;BME280;46978;50.288;28.624;2022-12-07T01:24:42;98965.41;;;-4.86;100.00
60337;BME280;46978;50.288;28.624;2022-12-07T01:25:44;98967.94;;;-4.86;100.00
60337;BME280;46978;50.288;28.624;2022-12-07T01:26:49;98971.31;;;-4.86;100.00
60337;BME280;46978;50.288;28.624;2022-12-07T01:27:51;98969.64;;;-4.85;100.00
60337;BME280;46978;50.288;28.624;2022-12-07T01:28:53;98976.38;;;-4.86;100.00
60337;BME280;46978;50.288;28.624;2022-12-07T01:29:55;98973.05;;;-4.84;100.00
60337;BME280;46978;50.288;28.624;2022-12-07T01:30:59;98972.22;;;-4.83;100.00
60337;BME280;46978;50.288;28.624;2022-12-07T01:32:01;98960.40;;;-4.84;100.00
60337;BME280;46978;50.288;28.624;2022-12-07T01:33:03;98964.63;;;-4.83;100.00
60337;BME280;46978;50.288;28.624;2022-12-07T01:34:04;98959.56;;;-4.83;100.00
60337;BME280;46978;50.288;28.624;2022-12-07T01:35:07;98964.63;;;-4.83;100.00
60337;BME280;46978;50.288;28.624;2022-12-07T01:36:21;98964.69;;;-4.82;100.00
60337;BME280;46978;50.288;28.624;2022-12-07T01:37:23;98960.52;;;-4.81;100.00
60337;BME280;46978;50.288;28.624;2022-12-07T01:38:25;98960.56;;;-4.80;100.00
60337;BME280;46978;50.288;28.624;2022-12-07T01:39:27;98956.30;;;-4.81;100.00
60337;BME280;46978;50.288;28.624;2022-12-07T01:40:29;98952.97;;;-4.80;100.00
60337;BME280;46978;50.288;28.624;2022-12-07T01:41:34;98950.44;;;-4.80;100.00
60337;BME280;46978;50.288;28.624;2022-12-07T01:42:35;98952.97;;;-4.80;100.00
60337;BME280;46978;50.288;28.624;2022-12-07T01:44:05;98957.15;;;-4.80;100.00
60337;BME280;46978;50.288;28.624;2022-12-07T01:46:21;98948.65;;;-4.82;100.00
60337;BME280;46978;50.288;28.624;2022-12-07T01:47:23;98950.39;;;-4.81;100.00
60337;BME280;46978;50.288;28.624;2022-12-07T01:48:39;98944.44;;;-4.82;100.00
60337;BME280;46978;50.288;28.624;2022-12-07T01:49:45;98947.03;;;-4.80;100.00
60337;BME280;46978;50.288;28.624;2022-12-07T01:50:50;98944.50;;;-4.80;100.00
60337;BME280;46978;50.288;28.624;2022-12-07T01:52:00;98943.70;;;-4.79;100.00
60337;BME280;46978;50.288;28.624;2022-12-07T01:52:59;98949.61;;;-4.79;100.00
60337;BME280;46978;50.288;28.624;2022-12-07T01:54:03;98944.61;;;-4.77;100.00
60337;BME280;46978;50.288;28.624;2022-12-07T01:55:10;98945.55;;;-4.75;100.00
60337;BME280;46978;50.288;28.624;2022-12-07T01:56:17;98950.66;;;-4.74;100.00
60337;BME280;46978;50.288;28.624;2022-12-07T01:57:19;98947.30;;;-4.73;100.00
60337;BME280;46978;50.288;28.624;2022-12-07T01:58:21;98943.13;;;-4.72;100.00
60337;BME280;46978;50.288;28.624;2022-12-07T01:59:25;98946.51;;;-4.72;100.00
60337;BME280;46978;50.288;28.624;2022-12-07T02:00:27;98938.97;;;-4.70;100.00
60337;BME280;46978;50.288;28.624;2022-12-07T02:01:29;98939.82;;;-4.70;100.00
60337;BME280;46978;50.288;28.624;2022-12-07T02:02:34;98929.64;;;-4.71;100.00
60337;BME280;46978;50.288;28.624;2022-12-07T02:03:39;98933.11;;;-4.69;100.00
60337;BME280;46978;50.288;28.624;2022-12-07T02:04:42;98931.42;;;-4.69;100.00
60337;BME280;46978;50.288;28.624;2022-12-07T02:05:44;98937.34;;;-4.68;100.00
60337;BME280;46978;50.288;28.624;2022-12-07T02:06:48;98931.48;;;-4.67;100.00
60337;BME280;46978;50.288;28.624;2022-12-07T02:07:51;98934.02;;;-4.67;100.00
60337;BME280;46978;50.288;28.624;2022-12-07T02:08:54;98932.39;;;-4.65;100.00
60337;BME280;46978;50.288;28.624;2022-12-07T02:09:56;98933.27;;;-4.64;100.00
60337;BME280;46978;50.288;28.624;2022-12-07T02:10:58;98931.59;;;-4.64;100.00
60337;BME280;46978;50.288;28.624;2022-12-07T02:12:01;98934.98;;;-4.63;100.00
60337;BME280;46978;50.288;28.624;2022-12-07T02:13:13;98934.17;;;-4.62;100.00
60337;BME280;46978;50.288;28.624;2022-12-07T02:14:15;98930.80;;;-4.63;100.00
60337;BME280;46978;50.288;28.624;2022-12-07T02:15:17;98935.91;;;-4.61;100.00
60337;BME280;46978;50.288;28.624;2022-12-07T02:17:49;98932.61;;;-4.59;100.00
60337;BME280;46978;50.288;28.624;2022-12-07T02:21:45;98920.00;;;-4.57;100.00
60337;BME280;46978;50.288;28.624;2022-12-07T02:23:18;98922.48;;;-4.59;100.00
60337;BME280;46978;50.288;28.624;2022-12-07T02:26:56;98916.72;;;-4.55;100.00
60337;BME280;46978;50.288;28.624;2022-12-07T02:29:31;98912.56;;;-4.53;100.00
60337;BME280;46978;50.288;28.624;2022-12-07T02:30:35;98905.85;;;-4.52;100.00
60337;BME280;46978;50.288;28.624;2022-12-07T02:31:41;98907.55;;;-4.51;100.00
60337;BME280;46978;50.288;28.624;2022-12-07T02:34:08;98904.27;;;-4.48;100.00
60337;BME280;46978;50.288;28.624;2022-12-07T02:35:28;98907.66;;;-4.48;100.00
60337;BME280;46978;50.288;28.624;2022-12-07T02:36:27;98901.80;;;-4.47;100.00
60337;BME280;46978;50.288;28.624;2022-12-07T02:38:55;98907.66;;;-4.48;100.00
60337;BME280;46978;50.288;28.624;2022-12-07T02:40:02;98903.53;;;-4.46;100.00
60337;BME280;46978;50.288;28.624;2022-12-07T02:41:06;98906.11;;;-4.44;100.00
60337;BME280;46978;50.288;28.624;2022-12-07T02:42:23;98908.70;;;-4.43;100.00
60337;BME280;46978;50.288;28.624;2022-12-07T02:43:28;98902.80;;;-4.42;100.00
60337;BME280;46978;50.288;28.624;2022-12-07T02:44:30;98902.00;;;-4.41;100.00
60337;BME280;46978;50.288;28.624;2022-12-07T02:45:35;98898.67;;;-4.40;100.00
60337;BME280;46978;50.288;28.624;2022-12-07T02:46:40;98900.33;;;-4.40;100.00
60337;BME280;46978;50.288;28.624;2022-12-07T02:47:45;98896.94;;;-4.41;100.00
60337;BME280;46978;50.288;28.624;2022-12-07T02:48:49;98891.08;;;-4.40;100.00
60337;BME280;46978;50.288;28.624;2022-12-07T02:49:52;98896.24;;;-4.37;100.00
60337;BME280;46978;50.288;28.624;2022-12-07T02:50:54;98892.03;;;-4.36;100.00
60337;BME280;46978;50.288;28.624;2022-12-07T02:51:56;98898.78;;;-4.37;100.00
60337;BME280;46978;50.288;28.624;2022-12-07T02:52:58;98892.94;;;-4.34;100.00
60337;BME280;46978;50.288;28.624;2022-12-07T02:54:00;98898.00;;;-4.34;100.00
60337;BME280;46978;50.288;28.624;2022-12-07T02:55:02;98898.88;;;-4.34;100.00
60337;BME280;46978;50.288;28.624;2022-12-07T02:59:02;98894.72;;;-4.32;100.00
60337;BME280;46978;50.288;28.624;2022-12-07T03:00:08;98899.84;;;-4.30;100.00
60337;BME280;46978;50.288;28.624;2022-12-07T03:01:20;98893.92;;;-4.30;100.00
60337;BME280;46978;50.288;28.624;2022-12-07T03:02:25;98894.82;;;-4.28;100.00
60337;BME280;46978;50.288;28.624;2022-12-07T03:03:28;98889.80;;;-4.27;100.00
60337;BME280;46978;50.288;28.624;2022-12-07T03:06:08;98894.13;;;-4.24;100.00
60337;BME280;46978;50.288;28.624;2022-12-07T03:09:57;98901.88;;;-4.20;100.00
60337;BME280;46978;50.288;28.624;2022-12-07T03:12:14;98891.80;;;-4.18;100.00
60337;BME280;46978;50.288;28.624;2022-12-07T03:14:34;98890.96;;;-4.17;100.00
60337;BME280;46978;50.288;28.624;2022-12-07T03:15:52;98889.27;;;-4.18;100.00
60337;BME280;46978;50.288;28.624;2022-12-07T03:17:00;98892.64;;;-4.18;100.00
60337;BME280;46978;50.288;28.624;2022-12-07T03:17:59;98890.96;;;-4.17;100.00
60337;BME280;46978;50.288;28.624;2022-12-07T03:19:13;98887.63;;;-4.16;100.00
60337;BME280;46978;50.288;28.624;2022-12-07T03:20:17;98887.63;;;-4.16;100.00
60337;BME280;46978;50.288;28.624;2022-12-07T03:21:26;98885.19;;;-4.13;100.00
60337;BME280;46978;50.288;28.624;2022-12-07T03:22:30;98887.78;;;-4.11;100.00
60337;BME280;46978;50.288;28.624;2022-12-07T03:23:35;98875.96;;;-4.11;100.00
60337;BME280;46978;50.288;28.624;2022-12-07T03:24:45;98876.89;;;-4.09;100.00
60337;BME280;46978;50.288;28.624;2022-12-07T03:25:49;98876.06;;;-4.08;100.00
60337;BME280;46978;50.288;28.624;2022-12-07T03:26:56;98877.74;;;-4.08;100.00
60337;BME280;46978;50.288;28.624;2022-12-07T03:28:01;98877.74;;;-4.08;100.00
60337;BME280;46978;50.288;28.624;2022-12-07T03:29:06;98877.74;;;-4.08;100.00
60337;BME280;46978;50.288;28.624;2022-12-07T03:30:15;98877.74;;;-4.08;100.00
60337;BME280;46978;50.288;28.624;2022-12-07T03:31:28;98876.06;;;-4.08;100.00
60337;BME280;46978;50.288;28.624;2022-12-07T03:33:48;98878.64;;;-4.06;100.00
60337;BME280;46978;50.288;28.624;2022-12-07T03:37:18;98867.70;;;-4.05;100.00
60337;BME280;46978;50.288;28.624;2022-12-07T03:38:26;98869.39;;;-4.06;100.00
60337;BME280;46978;50.288;28.624;2022-12-07T03:41:58;98861.73;;;-4.07;100.00
60337;BME280;46978;50.288;28.624;2022-12-07T03:43:03;98861.73;;;-4.07;100.00
60337;BME280;46978;50.288;28.624;2022-12-07T03:44:06;98860.91;;;-4.06;100.00
60337;BME280;46978;50.288;28.624;2022-12-07T03:45:09;98865.17;;;-4.05;100.00
60337;BME280;46978;50.288;28.624;2022-12-07T03:47:51;98862.69;;;-4.04;100.00
60337;BME280;46978;50.288;28.624;2022-12-07T03:49:01;98860.20;;;-4.02;100.00
60337;BME280;46978;50.288;28.624;2022-12-07T03:51:24;98856.87;;;-4.01;100.00
60337;BME280;46978;50.288;28.624;2022-12-07T03:52:30;98855.09;;;-4.04;100.00
60337;BME280;46978;50.288;28.624;2022-12-07T03:53:44;98856.87;;;-4.01;100.00
60337;BME280;46978;50.288;28.624;2022-12-07T03:55:00;98858.56;;;-4.00;100.00
60337;BME280;46978;50.288;28.624;2022-12-07T03:56:03;98860.20;;;-4.02;100.00
60337;BME280;46978;50.288;28.624;2022-12-07T03:57:06;98856.91;;;-4.00;100.00
60337;BME280;46978;50.288;28.624;2022-12-07T03:58:11;98859.45;;;-4.00;100.00
60337;BME280;46978;50.288;28.624;2022-12-07T03:59:16;98853.50;;;-4.00;100.00
60337;BME280;46978;50.288;28.624;2022-12-07T04:00:19;98856.13;;;-3.97;100.00
60337;BME280;46978;50.288;28.624;2022-12-07T04:01:23;98854.43;;;-3.98;100.00
60337;BME280;46978;50.288;28.624;2022-12-07T04:02:27;98854.48;;;-3.97;100.00
60337;BME280;46978;50.288;28.624;2022-12-07T04:03:29;98853.64;;;-3.96;100.00
60337;BME280;46978;50.288;28.624;2022-12-07T04:04:31;98854.52;;;-3.95;100.00
60337;BME280;46978;50.288;28.624;2022-12-07T04:05:33;98849.45;;;-3.95;100.00
60337;BME280;46978;50.288;28.624;2022-12-07T04:06:35;98851.11;;;-3.96;100.00
60337;BME280;46978;50.288;28.624;2022-12-07T04:07:37;98848.58;;;-3.96;100.00
60337;BME280;46978;50.288;28.624;2022-12-07T04:08:39;98844.34;;;-3.97;100.00
60337;BME280;46978;50.288;28.624;2022-12-07T04:09:40;98850.31;;;-3.94;100.00
60337;BME280;46978;50.288;28.624;2022-12-07T04:10:42;98852.89;;;-3.93;100.00
60337;BME280;46978;50.288;28.624;2022-12-07T04:11:44;98845.28;;;-3.93;100.00
60337;BME280;46978;50.288;28.624;2022-12-07T04:12:45;98845.33;;;-3.91;100.00
60337;BME280;46978;50.288;28.624;2022-12-07T04:13:47;98849.52;;;-3.92;100.00
60337;BME280;46978;50.288;28.624;2022-12-07T04:14:49;98852.05;;;-3.92;100.00
60337;BME280;46978;50.288;28.624;2022-12-07T04:15:51;98847.82;;;-3.93;100.00
60337;BME280;46978;50.288;28.624;2022-12-07T04:16:55;98842.80;;;-3.91;100.00
60337;BME280;46978;50.288;28.624;2022-12-07T04:17:57;98851.20;;;-3.92;100.00
60337;BME280;46978;50.288;28.624;2022-12-07T04:18:59;98846.98;;;-3.92;100.00
60337;BME280;46978;50.288;28.624;2022-12-07T04:20:01;98848.72;;;-3.91;100.00
60337;BME280;46978;50.288;28.624;2022-12-07T04:21:03;98843.65;;;-3.91;100.00
60337;BME280;46978;50.288;28.624;2022-12-07T04:22:05;98844.50;;;-3.90;100.00
60337;BME280;46978;50.288;28.624;2022-12-07T04:23:07;98854.64;;;-3.90;100.00
60337;BME280;46978;50.288;28.624;2022-12-07T04:24:09;98844.50;;;-3.90;100.00
60337;BME280;46978;50.288;28.624;2022-12-07T04:25:11;98842.02;;;-3.89;100.00
60337;BME280;46978;50.288;28.624;2022-12-07T04:26:12;98838.58;;;-3.91;100.00
60337;BME280;46978;50.288;28.624;2022-12-07T04:27:14;98844.50;;;-3.90;100.00
60337;BME280;46978;50.288;28.624;2022-12-07T04:28:16;98843.70;;;-3.89;100.00
60337;BME280;46978;50.288;28.624;2022-12-07T04:29:18;98836.09;;;-3.89;100.00
60337;BME280;46978;50.288;28.624;2022-12-07T04:30:20;98837.83;;;-3.88;100.00
60337;BME280;46978;50.288;28.624;2022-12-07T04:31:22;98827.69;;;-3.88;100.00
60337;BME280;46978;50.288;28.624;2022-12-07T04:32:24;98837.83;;;-3.88;100.00
60337;BME280;46978;50.288;28.624;2022-12-07T04:33:26;98838.67;;;-3.88;100.00
60337;BME280;46978;50.288;28.624;2022-12-07T04:34:27;98835.34;;;-3.87;100.00
60337;BME280;46978;50.288;28.624;2022-12-07T04:35:29;98839.52;;;-3.87;100.00
60337;BME280;46978;50.288;28.624;2022-12-07T04:36:32;98841.26;;;-3.86;100.00
60337;BME280;46978;50.288;28.624;2022-12-07T04:37:34;98840.45;;;-3.85;100.00
60337;BME280;46978;50.288;28.624;2022-12-07T04:38:35;98833.70;;;-3.85;100.00
60337;BME280;46978;50.288;28.624;2022-12-07T04:39:37;98829.44;;;-3.86;100.00
60337;BME280;46978;50.288;28.624;2022-12-07T04:40:39;98832.02;;;-3.84;100.00
60337;BME280;46978;50.288;28.624;2022-12-07T04:41:41;98835.43;;;-3.84;100.00
60337;BME280;46978;50.288;28.624;2022-12-07T04:42:42;98832.06;;;-3.83;100.00
60337;BME280;46978;50.288;28.624;2022-12-07T04:43:44;98834.59;;;-3.83;100.00
60337;BME280;46978;50.288;28.624;2022-12-07T04:44:46;98828.72;;;-3.82;100.00
60337;BME280;46978;50.288;28.624;2022-12-07T04:45:48;98831.30;;;-3.80;100.00
60337;BME280;46978;50.288;28.624;2022-12-07T04:46:50;98827.09;;;-3.80;100.00
60337;BME280;46978;50.288;28.624;2022-12-07T04:47:52;98829.63;;;-3.80;100.00
60337;BME280;46978;50.288;28.624;2022-12-07T04:48:54;98825.44;;;-3.79;100.00
60337;BME280;46978;50.288;28.624;2022-12-07T04:49:56;98827.97;;;-3.79;100.00
60337;BME280;46978;50.288;28.624;2022-12-07T04:50:58;98824.59;;;-3.78;100.00
60337;BME280;46978;50.288;28.624;2022-12-07T04:52:00;98823.80;;;-3.77;100.00
60337;BME280;46978;50.288;28.624;2022-12-07T04:53:01;98831.40;;;-3.77;100.00
60337;BME280;46978;50.288;28.624;2022-12-07T04:54:04;98821.21;;;-3.79;100.00
60337;BME280;46978;50.288;28.624;2022-12-07T04:55:06;98820.31;;;-3.81;100.00
60337;BME280;46978;50.288;28.624;2022-12-07T04:56:08;98820.31;;;-3.81;100.00
60337;BME280;46978;50.288;28.624;2022-12-07T04:57:10;98816.05;;;-3.82;100.00
60337;BME280;46978;50.288;28.624;2022-12-07T04:58:12;98829.58;;;-3.81;100.00
60337;BME280;46978;50.288;28.624;2022-12-07T04:59:15;98827.04;;;-3.81;100.00
60337;BME280;46978;50.288;28.624;2022-12-07T05:00:18;98826.99;;;-3.83;100.00
60337;BME280;46978;50.288;28.624;2022-12-07T05:01:21;98826.14;;;-3.83;100.00
60337;BME280;46978;50.288;28.624;2022-12-07T05:02:23;98816.85;;;-3.83;100.00
60337;BME280;46978;50.288;28.624;2022-12-07T05:03:25;98822.80;;;-3.82;100.00
60337;BME280;46978;50.288;28.624;2022-12-07T05:04:27;98817.78;;;-3.81;100.00
60337;BME280;46978;50.288;28.624;2022-12-07T05:05:28;98820.31;;;-3.81;100.00
60337;BME280;46978;50.288;28.624;2022-12-07T05:06:31;98825.44;;;-3.79;100.00
60337;BME280;46978;50.288;28.624;2022-12-07T05:07:32;98824.59;;;-3.78;100.00
60337;BME280;46978;50.288;28.624;2022-12-07T05:08:35;98820.41;;;-3.77;100.00
60337;BME280;46978;50.288;28.624;2022-12-07T05:09:37;98822.98;;;-3.76;100.00
60337;BME280;46978;50.288;28.624;2022-12-07T05:10:39;98823.89;;;-3.74;100.00
60337;BME280;46978;50.288;28.624;2022-12-07T05:11:40;98825.62;;;-3.73;100.00
60337;BME280;46978;50.288;28.624;2022-12-07T05:12:42;98823.94;;;-3.72;100.00
60337;BME280;46978;50.288;28.624;2022-12-07T05:13:44;98818.02;;;-3.73;100.00
60337;BME280;46978;50.288;28.624;2022-12-07T05:14:45;98820.59;;;-3.71;100.00
60337;BME280;46978;50.288;28.624;2022-12-07T05:15:47;98823.94;;;-3.72;100.00
60337;BME280;46978;50.288;28.624;2022-12-07T05:16:50;98819.66;;;-3.73;100.00
60337;BME280;46978;50.288;28.624;2022-12-07T05:17:52;98824.83;;;-3.70;100.00
60337;BME280;46978;50.288;28.624;2022-12-07T05:18:54;98824.83;;;-3.70;100.00
60337;BME280;46978;50.288;28.624;2022-12-07T05:19:56;98819.76;;;-3.70;100.00
60337;BME280;46978;50.288;28.624;2022-12-07T05:20:58;98819.80;;;-3.69;100.00
60337;BME280;46978;50.288;28.624;2022-12-07T05:22:00;98822.39;;;-3.67;100.00
60337;BME280;46978;50.288;28.624;2022-12-07T05:23:02;98825.80;;;-3.67;100.00
60337;BME280;46978;50.288;28.624;2022-12-07T05:24:05;98821.63;;;-3.65;100.00
60337;BME280;46978;50.288;28.624;2022-12-07T05:25:08;98816.51;;;-3.66;100.00
60337;BME280;46978;50.288;28.624;2022-12-07T05:26:10;98819.89;;;-3.66;100.00
60337;BME280;46978;50.288;28.624;2022-12-07T05:27:12;98821.63;;;-3.65;100.00
60337;BME280;46978;50.288;28.624;2022-12-07T05:28:14;98825.89;;;-3.64;100.00
60337;BME280;46978;50.288;28.624;2022-12-07T05:29:17;98819.98;;;-3.63;100.00
60337;BME280;46978;50.288;28.624;2022-12-07T05:30:19;98823.41;;;-3.62;100.00
60337;BME280;46978;50.288;28.624;2022-12-07T05:31:21;98823.41;;;-3.62;100.00
60337;BME280;46978;50.288;28.624;2022-12-07T05:32:23;98822.52;;;-3.63;100.00
60337;BME280;46978;50.288;28.624;2022-12-07T05:33:25;98823.41;;;-3.62;100.00
60337;BME280;46978;50.288;28.624;2022-12-07T05:34:27;98821.72;;;-3.62;100.00
60337;BME280;46978;50.288;28.624;2022-12-07T05:35:29;98818.33;;;-3.62;100.00
60337;BME280;46978;50.288;28.624;2022-12-07T05:36:31;98821.77;;;-3.60;100.00
60337;BME280;46978;50.288;28.624;2022-12-07T05:37:32;98821.77;;;-3.60;100.00
60337;BME280;46978;50.288;28.624;2022-12-07T05:38:34;98825.98;;;-3.61;100.00
60337;BME280;46978;50.288;28.624;2022-12-07T05:39:36;98822.61;;;-3.60;100.00
60337;BME280;46978;50.288;28.624;2022-12-07T05:40:38;98816.69;;;-3.60;100.00
60337;BME280;46978;50.288;28.624;2022-12-07T05:41:39;98815.00;;;-3.60;100.00
60337;BME280;46978;50.288;28.624;2022-12-07T05:42:41;98819.23;;;-3.60;100.00
60337;BME280;46978;50.288;28.624;2022-12-07T05:43:43;98818.38;;;-3.61;100.00
60337;BME280;46978;50.288;28.624;2022-12-07T05:44:46;98821.72;;;-3.62;100.00
60337;BME280;46978;50.288;28.624;2022-12-07T05:45:48;98820.08;;;-3.60;100.00
60337;BME280;46978;50.288;28.624;2022-12-07T05:46:49;98820.08;;;-3.60;100.00
60337;BME280;46978;50.288;28.624;2022-12-07T05:47:51;98817.58;;;-3.58;100.00
60337;BME280;46978;50.288;28.624;2022-12-07T05:48:53;98809.17;;;-3.57;100.00
60337;BME280;46978;50.288;28.624;2022-12-07T05:49:55;98820.21;;;-3.55;100.00
60337;BME280;46978;50.288;28.624;2022-12-07T05:50:56;98816.02;;;-3.54;100.00
60337;BME280;46978;50.288;28.624;2022-12-07T05:51:58;98810.99;;;-3.53;100.00
60337;BME280;46978;50.288;28.624;2022-12-07T05:53:00;98808.50;;;-3.51;100.00
60337;BME280;46978;50.288;28.624;2022-12-07T05:54:02;98815.27;;;-3.50;100.00
60337;BME280;46978;50.288;28.624;2022-12-07T05:55:04;98813.58;;;-3.51;100.00
60337;BME280;46978;50.288;28.624;2022-12-07T05:56:07;98810.20;;;-3.50;100.00
60337;BME280;46978;50.288;28.624;2022-12-07T05:57:09;98813.63;;;-3.50;100.00
60337;BME280;46978;50.288;28.624;2022-12-07T05:58:10;98811.89;;;-3.51;100.00